sensor_id;sensor_type;location;lat;lon;timestamp;P1;durP1;ratioP1;P2;durP2;ratioP2
8946;SDS011;4508;48.790;9.028;2022-11-20T00:00:04;6.18;;;5.68;;
8946;SDS011;4508;48.790;9.028;2022-11-20T00:02:32;6.40;;;5.75;;
8946;SDS011;4508;48.790;9.028;2022-11-20T00:04:59;6.20;;;5.70;;
8946;SDS011;4508;48.790;9.028;2022-11-20T00:07:26;5.80;;;5.30;;
8946;SDS011;4508;48.790;9.028;2022-11-20T00:09:52;6.07;;;5.57;;
8946;SDS011;4508;48.790;9.028;2022-11-20T00:12:19;6.20;;;5.60;;
8946;SDS011;4508;48.790;9.028;2022-11-20T00:14:46;6.97;;;5.85;;
8946;SDS011;4508;48.790;9.028;2022-11-20T00:17:12;6.15;;;5.47;;
8946;SDS011;4508;48.790;9.028;2022-11-20T00:19:40;6.28;;;5.68;;
8946;SDS011;4508;48.790;9.028;2022-11-20T00:22:07;5.93;;;5.32;;
8946;SDS011;4508;48.790;9.028;2022-11-20T00:24:33;5.73;;;5.23;;
8946;SDS011;4508;48.790;9.028;2022-11-20T00:27:00;5.40;;;4.90;;
8946;SDS011;4508;48.790;9.028;2022-11-20T00:29:27;5.45;;;4.95;;
8946;SDS011;4508;48.790;9.028;2022-11-20T00:31:54;5.15;;;4.68;;
8946;SDS011;4508;48.790;9.028;2022-11-20T00:34:20;5.10;;;4.60;;
8946;SDS011;4508;48.790;9.028;2022-11-20T00:36:48;5.35;;;4.88;;
8946;SDS011;4508;48.790;9.028;2022-11-20T00:39:15;5.30;;;4.80;;
8946;SDS011;4508;48.790;9.028;2022-11-20T00:41:42;5.25;;;4.85;;
8946;SDS011;4508;48.790;9.028;2022-11-20T00:44:08;4.75;;;4.35;;
8946;SDS011;4508;48.790;9.028;2022-11-20T00:46:35;4.68;;;4.28;;
8946;SDS011;4508;48.790;9.028;2022-11-20T00:49:01;4.77;;;4.37;;
8946;SDS011;4508;48.790;9.028;2022-11-20T00:51:28;4.40;;;3.95;;
8946;SDS011;4508;48.790;9.028;2022-11-20T00:53:57;4.30;;;3.90;;
8946;SDS011;4508;48.790;9.028;2022-11-20T00:56:27;4.65;;;4.18;;
8946;SDS011;4508;48.790;9.028;2022-11-20T00:58:54;4.20;;;3.80;;
8946;SDS011;4508;48.790;9.028;2022-11-20T01:01:21;4.53;;;3.90;;
8946;SDS011;4508;48.790;9.028;2022-11-20T01:03:50;4.50;;;4.10;;
8946;SDS011;4508;48.790;9.028;2022-11-20T01:06:18;4.22;;;3.83;;
8946;SDS011;4508;48.790;9.028;2022-11-20T01:08:46;4.10;;;3.53;;
8946;SDS011;4508;48.790;9.028;2022-11-20T01:11:15;3.90;;;3.60;;
8946;SDS011;4508;48.790;9.028;2022-11-20T01:13:44;3.90;;;3.60;;
8946;SDS011;4508;48.790;9.028;2022-11-20T01:16:12;3.90;;;3.50;;
8946;SDS011;4508;48.790;9.028;2022-11-20T01:18:41;3.97;;;3.65;;
8946;SDS011;4508;48.790;9.028;2022-11-20T01:21:10;3.92;;;3.60;;
8946;SDS011;4508;48.790;9.028;2022-11-20T01:23:40;3.88;;;3.47;;
8946;SDS011;4508;48.790;9.028;2022-11-20T01:26:08;3.63;;;3.33;;
8946;SDS011;4508;48.790;9.028;2022-11-20T01:28:38;3.88;;;3.50;;
8946;SDS011;4508;48.790;9.028;2022-11-20T01:31:10;3.70;;;3.38;;
8946;SDS011;4508;48.790;9.028;2022-11-20T01:33:38;3.80;;;3.47;;
8946;SDS011;4508;48.790;9.028;2022-11-20T01:36:06;3.47;;;3.17;;
8946;SDS011;4508;48.790;9.028;2022-11-20T01:38:34;3.80;;;3.50;;
8946;SDS011;4508;48.790;9.028;2022-11-20T01:41:01;3.60;;;3.30;;
8946;SDS011;4508;48.790;9.028;2022-11-20T01:43:27;3.72;;;3.42;;
8946;SDS011;4508;48.790;9.028;2022-11-20T01:46:02;3.42;;;3.10;;
8946;SDS011;4508;48.790;9.028;2022-11-20T01:48:33;3.40;;;3.10;;
8946;SDS011;4508;48.790;9.028;2022-11-20T01:51:04;3.70;;;3.30;;
8946;SDS011;4508;48.790;9.028;2022-11-20T01:53:36;3.70;;;3.40;;
8946;SDS011;4508;48.790;9.028;2022-11-20T01:56:05;3.40;;;3.10;;
8946;SDS011;4508;48.790;9.028;2022-11-20T01:58:35;3.22;;;2.92;;
8946;SDS011;4508;48.790;9.028;2022-11-20T02:01:07;3.60;;;3.30;;
8946;SDS011;4508;48.790;9.028;2022-11-20T02:03:34;3.50;;;3.20;;
8946;SDS011;4508;48.790;9.028;2022-11-20T02:06:04;3.20;;;3.00;;
8946;SDS011;4508;48.790;9.028;2022-11-20T02:08:34;3.30;;;3.00;;
8946;SDS011;4508;48.790;9.028;2022-11-20T02:11:02;2.90;;;2.70;;
8946;SDS011;4508;48.790;9.028;2022-11-20T02:13:29;3.20;;;2.95;;
8946;SDS011;4508;48.790;9.028;2022-11-20T02:16:12;3.08;;;2.80;;
8946;SDS011;4508;48.790;9.028;2022-11-20T02:18:42;3.08;;;2.88;;
8946;SDS011;4508;48.790;9.028;2022-11-20T02:21:13;3.60;;;3.30;;
8946;SDS011;4508;48.790;9.028;2022-11-20T02:24:01;3.10;;;2.88;;
8946;SDS011;4508;48.790;9.028;2022-11-20T02:26:38;3.33;;;3.03;;
8946;SDS011;4508;48.790;9.028;2022-11-20T02:29:09;3.40;;;3.10;;
8946;SDS011;4508;48.790;9.028;2022-11-20T02:31:37;3.35;;;3.05;;
8946;SDS011;4508;48.790;9.028;2022-11-20T02:34:05;3.30;;;3.10;;
8946;SDS011;4508;48.790;9.028;2022-11-20T02:36:33;3.50;;;3.20;;
8946;SDS011;4508;48.790;9.028;2022-11-20T02:39:03;3.60;;;3.30;;
8946;SDS011;4508;48.790;9.028;2022-11-20T02:41:32;3.65;;;3.30;;
8946;SDS011;4508;48.790;9.028;2022-11-20T02:43:59;3.73;;;3.43;;
8946;SDS011;4508;48.790;9.028;2022-11-20T02:46:26;3.63;;;3.33;;
8946;SDS011;4508;48.790;9.028;2022-11-20T02:48:53;4.38;;;3.42;;
8946;SDS011;4508;48.790;9.028;2022-11-20T02:51:19;3.40;;;3.10;;
8946;SDS011;4508;48.790;9.028;2022-11-20T02:53:46;3.53;;;3.22;;
8946;SDS011;4508;48.790;9.028;2022-11-20T02:56:14;3.72;;;3.22;;
8946;SDS011;4508;48.790;9.028;2022-11-20T02:58:41;3.80;;;3.20;;
8946;SDS011;4508;48.790;9.028;2022-11-20T03:01:08;3.83;;;3.42;;
8946;SDS011;4508;48.790;9.028;2022-11-20T03:03:35;3.70;;;3.40;;
8946;SDS011;4508;48.790;9.028;2022-11-20T03:06:01;4.00;;;3.60;;
8946;SDS011;4508;48.790;9.028;2022-11-20T03:08:28;4.20;;;3.80;;
8946;SDS011;4508;48.790;9.028;2022-11-20T03:10:55;4.80;;;4.10;;
8946;SDS011;4508;48.790;9.028;2022-11-20T03:13:24;4.32;;;4.00;;
8946;SDS011;4508;48.790;9.028;2022-11-20T03:15:51;4.33;;;3.93;;
8946;SDS011;4508;48.790;9.028;2022-11-20T03:18:18;4.85;;;3.78;;
8946;SDS011;4508;48.790;9.028;2022-11-20T03:20:44;4.10;;;3.80;;
8946;SDS011;4508;48.790;9.028;2022-11-20T03:23:11;4.20;;;3.90;;
8946;SDS011;4508;48.790;9.028;2022-11-20T03:25:38;4.50;;;4.10;;
8946;SDS011;4508;48.790;9.028;2022-11-20T03:28:04;4.37;;;4.07;;
8946;SDS011;4508;48.790;9.028;2022-11-20T03:30:32;4.40;;;4.00;;
8946;SDS011;4508;48.790;9.028;2022-11-20T03:33:00;4.33;;;3.93;;
8946;SDS011;4508;48.790;9.028;2022-11-20T03:35:27;3.95;;;3.65;;
8946;SDS011;4508;48.790;9.028;2022-11-20T03:37:54;4.07;;;3.78;;
8946;SDS011;4508;48.790;9.028;2022-11-20T03:40:20;4.20;;;3.90;;
8946;SDS011;4508;48.790;9.028;2022-11-20T03:42:47;4.55;;;4.07;;
8946;SDS011;4508;48.790;9.028;2022-11-20T03:45:14;4.68;;;3.75;;
8946;SDS011;4508;48.790;9.028;2022-11-20T03:47:43;4.40;;;4.00;;
8946;SDS011;4508;48.790;9.028;2022-11-20T03:50:11;4.35;;;4.05;;
8946;SDS011;4508;48.790;9.028;2022-11-20T03:52:38;4.43;;;4.10;;
8946;SDS011;4508;48.790;9.028;2022-11-20T03:55:05;4.55;;;4.15;;
8946;SDS011;4508;48.790;9.028;2022-11-20T03:57:33;4.65;;;4.25;;
8946;SDS011;4508;48.790;9.028;2022-11-20T03:59:59;4.57;;;4.20;;
8946;SDS011;4508;48.790;9.028;2022-11-20T04:02:26;4.45;;;4.15;;
8946;SDS011;4508;48.790;9.028;2022-11-20T04:04:54;4.30;;;3.90;;
8946;SDS011;4508;48.790;9.028;2022-11-20T04:07:21;4.75;;;4.35;;
8946;SDS011;4508;48.790;9.028;2022-11-20T04:09:47;4.47;;;4.10;;
8946;SDS011;4508;48.790;9.028;2022-11-20T04:12:14;4.10;;;3.80;;
8946;SDS011;4508;48.790;9.028;2022-11-20T04:14:41;4.10;;;3.70;;
8946;SDS011;4508;48.790;9.028;2022-11-20T04:17:07;4.13;;;3.83;;
8946;SDS011;4508;48.790;9.028;2022-11-20T04:19:34;4.15;;;3.85;;
8946;SDS011;4508;48.790;9.028;2022-11-20T04:22:02;3.95;;;3.65;;
8946;SDS011;4508;48.790;9.028;2022-11-20T04:24:29;4.28;;;3.88;;
8946;SDS011;4508;48.790;9.028;2022-11-20T04:26:55;4.05;;;3.70;;
8946;SDS011;4508;48.790;9.028;2022-11-20T04:29:22;4.00;;;3.60;;
8946;SDS011;4508;48.790;9.028;2022-11-20T04:31:49;3.63;;;3.33;;
8946;SDS011;4508;48.790;9.028;2022-11-20T04:34:15;4.15;;;3.80;;
8946;SDS011;4508;48.790;9.028;2022-11-20T04:36:42;3.80;;;3.50;;
8946;SDS011;4508;48.790;9.028;2022-11-20T04:39:12;3.90;;;3.50;;
8946;SDS011;4508;48.790;9.028;2022-11-20T04:41:40;3.90;;;3.60;;
8946;SDS011;4508;48.790;9.028;2022-11-20T04:44:07;3.55;;;3.25;;
8946;SDS011;4508;48.790;9.028;2022-11-20T04:46:34;3.80;;;3.40;;
8946;SDS011;4508;48.790;9.028;2022-11-20T04:49:02;4.15;;;3.85;;
8946;SDS011;4508;48.790;9.028;2022-11-20T04:51:29;5.20;;;3.97;;
8946;SDS011;4508;48.790;9.028;2022-11-20T04:53:56;3.88;;;3.58;;
8946;SDS011;4508;48.790;9.028;2022-11-20T04:56:24;3.85;;;3.53;;
8946;SDS011;4508;48.790;9.028;2022-11-20T04:58:51;4.05;;;3.67;;
8946;SDS011;4508;48.790;9.028;2022-11-20T05:01:19;3.85;;;3.53;;
8946;SDS011;4508;48.790;9.028;2022-11-20T05:03:46;3.85;;;3.55;;
8946;SDS011;4508;48.790;9.028;2022-11-20T05:06:14;3.80;;;3.50;;
8946;SDS011;4508;48.790;9.028;2022-11-20T05:08:42;4.00;;;3.60;;
8946;SDS011;4508;48.790;9.028;2022-11-20T05:11:09;3.90;;;3.60;;
8946;SDS011;4508;48.790;9.028;2022-11-20T05:13:39;4.20;;;3.90;;
8946;SDS011;4508;48.790;9.028;2022-11-20T05:16:07;4.33;;;3.90;;
8946;SDS011;4508;48.790;9.028;2022-11-20T05:18:35;3.72;;;3.42;;
8946;SDS011;4508;48.790;9.028;2022-11-20T05:21:03;3.90;;;3.60;;
8946;SDS011;4508;48.790;9.028;2022-11-20T05:23:31;3.70;;;3.40;;
8946;SDS011;4508;48.790;9.028;2022-11-20T05:25:58;3.60;;;3.30;;
8946;SDS011;4508;48.790;9.028;2022-11-20T05:28:26;3.60;;;3.30;;
8946;SDS011;4508;48.790;9.028;2022-11-20T05:30:55;3.90;;;3.60;;
8946;SDS011;4508;48.790;9.028;2022-11-20T05:33:22;4.32;;;3.92;;
8946;SDS011;4508;48.790;9.028;2022-11-20T05:35:48;3.95;;;3.55;;
8946;SDS011;4508;48.790;9.028;2022-11-20T05:38:15;4.10;;;3.40;;
8946;SDS011;4508;48.790;9.028;2022-11-20T05:40:42;4.20;;;3.80;;
8946;SDS011;4508;48.790;9.028;2022-11-20T05:43:08;3.90;;;3.60;;
8946;SDS011;4508;48.790;9.028;2022-11-20T05:45:35;4.20;;;3.80;;
8946;SDS011;4508;48.790;9.028;2022-11-20T05:48:03;3.92;;;3.53;;
8946;SDS011;4508;48.790;9.028;2022-11-20T05:50:30;4.10;;;3.70;;
8946;SDS011;4508;48.790;9.028;2022-11-20T05:52:57;4.20;;;3.80;;
8946;SDS011;4508;48.790;9.028;2022-11-20T05:55:25;4.10;;;3.80;;
8946;SDS011;4508;48.790;9.028;2022-11-20T05:57:52;4.15;;;3.80;;
8946;SDS011;4508;48.790;9.028;2022-11-20T06:00:19;4.03;;;3.72;;
8946;SDS011;4508;48.790;9.028;2022-11-20T06:02:46;4.00;;;3.70;;
8946;SDS011;4508;48.790;9.028;2022-11-20T06:05:14;3.90;;;3.60;;
8946;SDS011;4508;48.790;9.028;2022-11-20T06:07:41;3.95;;;3.63;;
8946;SDS011;4508;48.790;9.028;2022-11-20T06:10:08;3.80;;;3.50;;
8946;SDS011;4508;48.790;9.028;2022-11-20T06:12:35;4.00;;;3.60;;
8946;SDS011;4508;48.790;9.028;2022-11-20T06:15:02;3.60;;;3.30;;
8946;SDS011;4508;48.790;9.028;2022-11-20T06:17:29;4.35;;;3.40;;
8946;SDS011;4508;48.790;9.028;2022-11-20T06:19:55;3.20;;;3.00;;
8946;SDS011;4508;48.790;9.028;2022-11-20T06:22:23;3.60;;;3.30;;
8946;SDS011;4508;48.790;9.028;2022-11-20T06:24:50;3.65;;;3.08;;
8946;SDS011;4508;48.790;9.028;2022-11-20T06:27:17;3.30;;;3.05;;
8946;SDS011;4508;48.790;9.028;2022-11-20T06:29:43;3.35;;;3.05;;
8946;SDS011;4508;48.790;9.028;2022-11-20T06:32:10;3.28;;;2.97;;
8946;SDS011;4508;48.790;9.028;2022-11-20T06:34:37;3.42;;;3.13;;
8946;SDS011;4508;48.790;9.028;2022-11-20T06:37:03;3.22;;;2.92;;
8946;SDS011;4508;48.790;9.028;2022-11-20T06:39:31;2.90;;;2.70;;
8946;SDS011;4508;48.790;9.028;2022-11-20T06:41:58;3.10;;;2.90;;
8946;SDS011;4508;48.790;9.028;2022-11-20T06:44:26;3.30;;;3.00;;
8946;SDS011;4508;48.790;9.028;2022-11-20T06:46:53;3.33;;;3.03;;
8946;SDS011;4508;48.790;9.028;2022-11-20T06:49:20;3.20;;;3.00;;
8946;SDS011;4508;48.790;9.028;2022-11-20T06:51:46;3.45;;;3.15;;
8946;SDS011;4508;48.790;9.028;2022-11-20T06:54:13;3.17;;;2.97;;
8946;SDS011;4508;48.790;9.028;2022-11-20T06:56:41;2.80;;;2.60;;
8946;SDS011;4508;48.790;9.028;2022-11-20T06:59:08;3.27;;;2.60;;
8946;SDS011;4508;48.790;9.028;2022-11-20T07:01:34;2.95;;;2.75;;
8946;SDS011;4508;48.790;9.028;2022-11-20T07:04:01;3.40;;;2.80;;
8946;SDS011;4508;48.790;9.028;2022-11-20T07:06:28;2.60;;;2.40;;
8946;SDS011;4508;48.790;9.028;2022-11-20T07:08:55;2.78;;;2.50;;
8946;SDS011;4508;48.790;9.028;2022-11-20T07:11:22;2.78;;;2.58;;
8946;SDS011;4508;48.790;9.028;2022-11-20T07:13:50;2.70;;;2.30;;
8946;SDS011;4508;48.790;9.028;2022-11-20T07:16:17;2.83;;;2.63;;
8946;SDS011;4508;48.790;9.028;2022-11-20T07:18:44;3.00;;;2.70;;
8946;SDS011;4508;48.790;9.028;2022-11-20T07:21:10;2.60;;;2.40;;
8946;SDS011;4508;48.790;9.028;2022-11-20T07:23:37;2.75;;;2.55;;
8946;SDS011;4508;48.790;9.028;2022-11-20T07:26:04;2.72;;;2.53;;
8946;SDS011;4508;48.790;9.028;2022-11-20T07:28:32;2.80;;;2.60;;
8946;SDS011;4508;48.790;9.028;2022-11-20T07:31:01;3.77;;;2.90;;
8946;SDS011;4508;48.790;9.028;2022-11-20T07:33:28;2.80;;;2.60;;
8946;SDS011;4508;48.790;9.028;2022-11-20T07:35:55;2.70;;;2.50;;
8946;SDS011;4508;48.790;9.028;2022-11-20T07:38:24;2.85;;;2.65;;
8946;SDS011;4508;48.790;9.028;2022-11-20T07:40:53;2.90;;;2.70;;
8946;SDS011;4508;48.790;9.028;2022-11-20T07:43:20;2.90;;;2.70;;
8946;SDS011;4508;48.790;9.028;2022-11-20T07:45:47;2.97;;;2.60;;
8946;SDS011;4508;48.790;9.028;2022-11-20T07:48:15;2.90;;;2.70;;
8946;SDS011;4508;48.790;9.028;2022-11-20T07:50:41;2.83;;;2.63;;
8946;SDS011;4508;48.790;9.028;2022-11-20T07:53:08;2.80;;;2.50;;
8946;SDS011;4508;48.790;9.028;2022-11-20T07:55:35;3.50;;;3.20;;
8946;SDS011;4508;48.790;9.028;2022-11-20T07:58:01;2.73;;;2.53;;
8946;SDS011;4508;48.790;9.028;2022-11-20T08:00:28;2.55;;;2.25;;
8946;SDS011;4508;48.790;9.028;2022-11-20T08:02:55;2.60;;;2.40;;
8946;SDS011;4508;48.790;9.028;2022-11-20T08:05:23;2.67;;;2.47;;
8946;SDS011;4508;48.790;9.028;2022-11-20T08:07:49;2.60;;;2.40;;
8946;SDS011;4508;48.790;9.028;2022-11-20T08:10:16;2.40;;;2.20;;
8946;SDS011;4508;48.790;9.028;2022-11-20T08:12:43;2.35;;;2.15;;
8946;SDS011;4508;48.790;9.028;2022-11-20T08:15:28;2.58;;;2.38;;
8946;SDS011;4508;48.790;9.028;2022-11-20T08:17:59;2.35;;;2.15;;
8946;SDS011;4508;48.790;9.028;2022-11-20T08:20:28;2.00;;;1.90;;
8946;SDS011;4508;48.790;9.028;2022-11-20T08:22:57;2.20;;;1.85;;
8946;SDS011;4508;48.790;9.028;2022-11-20T08:25:25;1.85;;;1.75;;
8946;SDS011;4508;48.790;9.028;2022-11-20T08:27:51;1.80;;;1.70;;
8946;SDS011;4508;48.790;9.028;2022-11-20T08:30:18;1.92;;;1.83;;
8946;SDS011;4508;48.790;9.028;2022-11-20T08:32:44;1.90;;;1.80;;
8946;SDS011;4508;48.790;9.028;2022-11-20T08:35:11;1.60;;;1.50;;
8946;SDS011;4508;48.790;9.028;2022-11-20T08:37:39;1.60;;;1.50;;
8946;SDS011;4508;48.790;9.028;2022-11-20T08:40:07;1.63;;;1.52;;
8946;SDS011;4508;48.790;9.028;2022-11-20T08:42:35;1.50;;;1.40;;
8946;SDS011;4508;48.790;9.028;2022-11-20T08:45:02;1.60;;;1.50;;
8946;SDS011;4508;48.790;9.028;2022-11-20T08:47:29;1.55;;;1.45;;
8946;SDS011;4508;48.790;9.028;2022-11-20T08:49:56;1.52;;;1.42;;
8946;SDS011;4508;48.790;9.028;2022-11-20T08:52:23;1.85;;;1.75;;
8946;SDS011;4508;48.790;9.028;2022-11-20T08:54:51;1.60;;;1.50;;
8946;SDS011;4508;48.790;9.028;2022-11-20T08:57:17;1.70;;;1.60;;
8946;SDS011;4508;48.790;9.028;2022-11-20T08:59:44;1.60;;;1.50;;
8946;SDS011;4508;48.790;9.028;2022-11-20T09:02:11;1.90;;;1.33;;
8946;SDS011;4508;48.790;9.028;2022-11-20T09:04:38;1.20;;;1.10;;
8946;SDS011;4508;48.790;9.028;2022-11-20T09:07:04;1.35;;;1.25;;
8946;SDS011;4508;48.790;9.028;2022-11-20T09:09:31;2.28;;;1.17;;
8946;SDS011;4508;48.790;9.028;2022-11-20T09:11:59;1.10;;;1.10;;
8946;SDS011;4508;48.790;9.028;2022-11-20T09:14:26;1.35;;;1.25;;
8946;SDS011;4508;48.790;9.028;2022-11-20T09:16:55;1.40;;;1.40;;
8946;SDS011;4508;48.790;9.028;2022-11-20T09:19:23;1.25;;;1.15;;
8946;SDS011;4508;48.790;9.028;2022-11-20T09:21:49;1.27;;;1.27;;
8946;SDS011;4508;48.790;9.028;2022-11-20T09:24:16;1.52;;;1.42;;
8946;SDS011;4508;48.790;9.028;2022-11-20T09:26:43;1.20;;;1.20;;
8946;SDS011;4508;48.790;9.028;2022-11-20T09:29:12;1.30;;;1.13;;
8946;SDS011;4508;48.790;9.028;2022-11-20T09:31:39;1.30;;;1.20;;
8946;SDS011;4508;48.790;9.028;2022-11-20T09:34:06;1.27;;;1.20;;
8946;SDS011;4508;48.790;9.028;2022-11-20T09:36:33;1.13;;;1.13;;
8946;SDS011;4508;48.790;9.028;2022-11-20T09:38:59;1.17;;;1.10;;
8946;SDS011;4508;48.790;9.028;2022-11-20T09:41:31;2.20;;;1.20;;
8946;SDS011;4508;48.790;9.028;2022-11-20T09:44:16;1.20;;;1.02;;
8946;SDS011;4508;48.790;9.028;2022-11-20T09:46:57;1.70;;;1.10;;
8946;SDS011;4508;48.790;9.028;2022-11-20T09:49:32;1.00;;;1.00;;
8946;SDS011;4508;48.790;9.028;2022-11-20T09:52:14;1.10;;;1.10;;
8946;SDS011;4508;48.790;9.028;2022-11-20T09:54:48;1.20;;;1.20;;
8946;SDS011;4508;48.790;9.028;2022-11-20T09:57:17;1.58;;;1.40;;
8946;SDS011;4508;48.790;9.028;2022-11-20T09:59:49;1.40;;;1.30;;
8946;SDS011;4508;48.790;9.028;2022-11-20T10:02:19;1.30;;;1.20;;
8946;SDS011;4508;48.790;9.028;2022-11-20T10:04:55;1.27;;;1.17;;
8946;SDS011;4508;48.790;9.028;2022-11-20T10:07:29;1.33;;;1.30;;
8946;SDS011;4508;48.790;9.028;2022-11-20T10:10:02;1.70;;;1.60;;
8946;SDS011;4508;48.790;9.028;2022-11-20T10:12:31;1.90;;;1.70;;
8946;SDS011;4508;48.790;9.028;2022-11-20T10:15:25;2.25;;;1.80;;
8946;SDS011;4508;48.790;9.028;2022-11-20T10:18:01;3.10;;;2.63;;
8946;SDS011;4508;48.790;9.028;2022-11-20T10:20:46;3.03;;;2.72;;
8946;SDS011;4508;48.790;9.028;2022-11-20T10:23:28;2.58;;;2.38;;
8946;SDS011;4508;48.790;9.028;2022-11-20T10:26:12;3.00;;;2.70;;
8946;SDS011;4508;48.790;9.028;2022-11-20T10:28:49;3.78;;;3.00;;
8946;SDS011;4508;48.790;9.028;2022-11-20T10:31:30;2.67;;;2.47;;
8946;SDS011;4508;48.790;9.028;2022-11-20T10:33:59;2.28;;;1.90;;
8946;SDS011;4508;48.790;9.028;2022-11-20T10:36:33;2.00;;;1.90;;
8946;SDS011;4508;48.790;9.028;2022-11-20T10:39:06;2.50;;;2.30;;
8946;SDS011;4508;48.790;9.028;2022-11-20T10:41:41;3.00;;;2.30;;
8946;SDS011;4508;48.790;9.028;2022-11-20T10:44:10;2.45;;;2.10;;
8946;SDS011;4508;48.790;9.028;2022-11-20T10:46:43;2.67;;;2.40;;
8946;SDS011;4508;48.790;9.028;2022-11-20T10:49:11;3.90;;;3.50;;
8946;SDS011;4508;48.790;9.028;2022-11-20T10:51:42;3.72;;;3.42;;
8946;SDS011;4508;48.790;9.028;2022-11-20T10:54:19;2.60;;;2.40;;
8946;SDS011;4508;48.790;9.028;2022-11-20T10:56:54;2.53;;;2.33;;
8946;SDS011;4508;48.790;9.028;2022-11-20T10:59:33;2.40;;;2.20;;
8946;SDS011;4508;48.790;9.028;2022-11-20T11:02:18;2.67;;;2.45;;
8946;SDS011;4508;48.790;9.028;2022-11-20T11:04:47;2.50;;;2.30;;
8946;SDS011;4508;48.790;9.028;2022-11-20T11:07:16;2.40;;;2.17;;
8946;SDS011;4508;48.790;9.028;2022-11-20T11:09:47;2.50;;;1.90;;
8946;SDS011;4508;48.790;9.028;2022-11-20T11:12:15;2.50;;;2.30;;
8946;SDS011;4508;48.790;9.028;2022-11-20T11:14:44;2.10;;;2.00;;
8946;SDS011;4508;48.790;9.028;2022-11-20T11:19:59;2.78;;;2.50;;
8946;SDS011;4508;48.790;9.028;2022-11-20T11:22:28;2.70;;;2.23;;
8946;SDS011;4508;48.790;9.028;2022-11-20T11:24:56;2.17;;;2.08;;
8946;SDS011;4508;48.790;9.028;2022-11-20T11:27:22;2.65;;;2.20;;
8946;SDS011;4508;48.790;9.028;2022-11-20T11:29:49;3.13;;;2.40;;
8946;SDS011;4508;48.790;9.028;2022-11-20T11:32:26;2.63;;;2.17;;
8946;SDS011;4508;48.790;9.028;2022-11-20T11:35:01;2.40;;;2.00;;
8946;SDS011;4508;48.790;9.028;2022-11-20T11:37:32;2.80;;;1.85;;
8946;SDS011;4508;48.790;9.028;2022-11-20T11:40:00;3.10;;;1.80;;
8946;SDS011;4508;48.790;9.028;2022-11-20T11:42:28;2.63;;;1.90;;
8946;SDS011;4508;48.790;9.028;2022-11-20T11:44:55;3.83;;;2.22;;
8946;SDS011;4508;48.790;9.028;2022-11-20T11:47:35;3.00;;;1.90;;
8946;SDS011;4508;48.790;9.028;2022-11-20T11:50:14;2.15;;;1.50;;
8946;SDS011;4508;48.790;9.028;2022-11-20T11:52:44;2.63;;;1.80;;
8946;SDS011;4508;48.790;9.028;2022-11-20T11:55:15;2.20;;;1.88;;
8946;SDS011;4508;48.790;9.028;2022-11-20T11:57:46;2.10;;;1.40;;
8946;SDS011;4508;48.790;9.028;2022-11-20T12:00:18;2.88;;;1.40;;
8946;SDS011;4508;48.790;9.028;2022-11-20T12:02:55;2.27;;;1.60;;
8946;SDS011;4508;48.790;9.028;2022-11-20T12:05:32;2.13;;;1.45;;
8946;SDS011;4508;48.790;9.028;2022-11-20T12:08:05;3.17;;;1.70;;
8946;SDS011;4508;48.790;9.028;2022-11-20T12:10:40;2.45;;;2.10;;
8946;SDS011;4508;48.790;9.028;2022-11-20T12:13:14;3.92;;;2.30;;
8946;SDS011;4508;48.790;9.028;2022-11-20T12:15:56;2.40;;;1.52;;
8946;SDS011;4508;48.790;9.028;2022-11-20T12:18:25;2.42;;;1.60;;
8946;SDS011;4508;48.790;9.028;2022-11-20T12:20:58;2.28;;;1.75;;
8946;SDS011;4508;48.790;9.028;2022-11-20T12:23:38;2.08;;;1.35;;
8946;SDS011;4508;48.790;9.028;2022-11-20T12:26:13;2.42;;;1.40;;
8946;SDS011;4508;48.790;9.028;2022-11-20T12:28:50;2.00;;;1.52;;
8946;SDS011;4508;48.790;9.028;2022-11-20T12:34:34;2.00;;;1.40;;
8946;SDS011;4508;48.790;9.028;2022-11-20T12:37:16;1.63;;;1.13;;
8946;SDS011;4508;48.790;9.028;2022-11-20T12:39:56;1.60;;;1.40;;
8946;SDS011;4508;48.790;9.028;2022-11-20T12:42:34;2.35;;;1.77;;
8946;SDS011;4508;48.790;9.028;2022-11-20T12:45:36;2.10;;;1.60;;
8946;SDS011;4508;48.790;9.028;2022-11-20T12:48:29;2.45;;;1.50;;
8946;SDS011;4508;48.790;9.028;2022-11-20T12:51:09;2.63;;;1.70;;
8946;SDS011;4508;48.790;9.028;2022-11-20T12:53:55;2.15;;;1.65;;
8946;SDS011;4508;48.790;9.028;2022-11-20T12:56:34;1.60;;;1.20;;
8946;SDS011;4508;48.790;9.028;2022-11-20T12:59:14;2.05;;;1.48;;
8946;SDS011;4508;48.790;9.028;2022-11-20T13:01:50;2.67;;;1.50;;
8946;SDS011;4508;48.790;9.028;2022-11-20T13:04:31;2.67;;;1.60;;
8946;SDS011;4508;48.790;9.028;2022-11-20T13:07:09;2.83;;;1.50;;
8946;SDS011;4508;48.790;9.028;2022-11-20T13:09:39;2.22;;;1.75;;
8946;SDS011;4508;48.790;9.028;2022-11-20T13:12:10;1.95;;;1.20;;
8946;SDS011;4508;48.790;9.028;2022-11-20T13:14:41;1.65;;;1.10;;
8946;SDS011;4508;48.790;9.028;2022-11-20T13:17:13;1.77;;;1.20;;
8946;SDS011;4508;48.790;9.028;2022-11-20T13:19:47;2.55;;;1.40;;
8946;SDS011;4508;48.790;9.028;2022-11-20T13:22:25;2.42;;;1.40;;
8946;SDS011;4508;48.790;9.028;2022-11-20T13:24:52;2.15;;;1.60;;
8946;SDS011;4508;48.790;9.028;2022-11-20T13:27:20;1.98;;;1.50;;
8946;SDS011;4508;48.790;9.028;2022-11-20T13:29:58;1.60;;;1.30;;
8946;SDS011;4508;48.790;9.028;2022-11-20T13:32:27;1.63;;;1.30;;
8946;SDS011;4508;48.790;9.028;2022-11-20T13:34:57;2.40;;;1.50;;
8946;SDS011;4508;48.790;9.028;2022-11-20T13:37:28;2.40;;;1.30;;
8946;SDS011;4508;48.790;9.028;2022-11-20T13:40:13;1.90;;;1.38;;
8946;SDS011;4508;48.790;9.028;2022-11-20T13:42:53;1.15;;;1.00;;
8946;SDS011;4508;48.790;9.028;2022-11-20T13:45:23;2.67;;;1.35;;
8946;SDS011;4508;48.790;9.028;2022-11-20T13:47:51;2.70;;;2.20;;
8946;SDS011;4508;48.790;9.028;2022-11-20T13:50:19;1.63;;;1.40;;
8946;SDS011;4508;48.790;9.028;2022-11-20T13:52:58;1.63;;;1.40;;
8946;SDS011;4508;48.790;9.028;2022-11-20T13:55:34;1.40;;;1.20;;
8946;SDS011;4508;48.790;9.028;2022-11-20T13:58:15;1.80;;;1.50;;
8946;SDS011;4508;48.790;9.028;2022-11-20T14:00:55;1.90;;;1.60;;
8946;SDS011;4508;48.790;9.028;2022-11-20T14:03:27;1.50;;;1.30;;
8946;SDS011;4508;48.790;9.028;2022-11-20T14:05:56;1.95;;;1.30;;
8946;SDS011;4508;48.790;9.028;2022-11-20T14:08:31;1.98;;;1.20;;
8946;SDS011;4508;48.790;9.028;2022-11-20T14:11:04;1.90;;;1.33;;
8946;SDS011;4508;48.790;9.028;2022-11-20T14:13:31;1.50;;;1.35;;
8946;SDS011;4508;48.790;9.028;2022-11-20T14:15:58;1.92;;;1.52;;
8946;SDS011;4508;48.790;9.028;2022-11-20T14:18:25;1.60;;;1.50;;
8946;SDS011;4508;48.790;9.028;2022-11-20T14:20:53;2.00;;;1.70;;
8946;SDS011;4508;48.790;9.028;2022-11-20T14:23:25;2.60;;;2.00;;
8946;SDS011;4508;48.790;9.028;2022-11-20T14:25:54;2.90;;;2.30;;
8946;SDS011;4508;48.790;9.028;2022-11-20T14:28:24;2.72;;;1.80;;
8946;SDS011;4508;48.790;9.028;2022-11-20T14:30:52;2.00;;;1.50;;
8946;SDS011;4508;48.790;9.028;2022-11-20T14:33:20;1.92;;;1.67;;
8946;SDS011;4508;48.790;9.028;2022-11-20T14:35:50;2.10;;;1.80;;
8946;SDS011;4508;48.790;9.028;2022-11-20T14:38:19;1.80;;;1.50;;
8946;SDS011;4508;48.790;9.028;2022-11-20T14:40:49;2.85;;;1.70;;
8946;SDS011;4508;48.790;9.028;2022-11-20T14:43:19;2.90;;;1.98;;
8946;SDS011;4508;48.790;9.028;2022-11-20T14:45:49;2.67;;;1.83;;
8946;SDS011;4508;48.790;9.028;2022-11-20T14:48:22;2.55;;;1.92;;
8946;SDS011;4508;48.790;9.028;2022-11-20T14:50:53;2.47;;;1.70;;
8946;SDS011;4508;48.790;9.028;2022-11-20T14:53:22;2.47;;;1.60;;
8946;SDS011;4508;48.790;9.028;2022-11-20T14:55:54;1.67;;;1.58;;
8946;SDS011;4508;48.790;9.028;2022-11-20T14:58:23;2.30;;;1.60;;
8946;SDS011;4508;48.790;9.028;2022-11-20T15:00:55;1.85;;;1.65;;
8946;SDS011;4508;48.790;9.028;2022-11-20T15:03:30;2.33;;;1.70;;
8946;SDS011;4508;48.790;9.028;2022-11-20T15:05:57;2.13;;;1.60;;
8946;SDS011;4508;48.790;9.028;2022-11-20T15:08:24;2.47;;;1.60;;
8946;SDS011;4508;48.790;9.028;2022-11-20T15:10:51;3.00;;;1.80;;
8946;SDS011;4508;48.790;9.028;2022-11-20T15:13:20;2.97;;;2.35;;
8946;SDS011;4508;48.790;9.028;2022-11-20T15:15:53;2.42;;;1.80;;
8946;SDS011;4508;48.790;9.028;2022-11-20T15:18:21;2.25;;;1.50;;
8946;SDS011;4508;48.790;9.028;2022-11-20T15:20:50;2.30;;;1.40;;
8946;SDS011;4508;48.790;9.028;2022-11-20T15:23:17;2.88;;;1.73;;
8946;SDS011;4508;48.790;9.028;2022-11-20T15:25:45;1.95;;;1.73;;
8946;SDS011;4508;48.790;9.028;2022-11-20T15:28:15;2.60;;;2.10;;
8946;SDS011;4508;48.790;9.028;2022-11-20T15:30:45;2.57;;;1.83;;
8946;SDS011;4508;48.790;9.028;2022-11-20T15:33:13;3.25;;;1.80;;
8946;SDS011;4508;48.790;9.028;2022-11-20T15:35:40;2.30;;;1.55;;